Latest Weather Observations for Yarrawonga

IDV60801

Issued at 11:31 pm EDT Wednesday 4 March 2015 (issued every 30 minutes, with the page automatically refreshed every 10 minutes)

About weather observations | Map of weather stations | Latest weather observations for VIC | Other Formats
Station Details ID: 081124 Name: YARRAWONGA Lat: -36.03 Lon: 146.03 Height: 128.9 m
Data from the previous 72 hours. | See also: Recent months at Yarrawonga
Date/Time
EDT
Temp
°C
App
Temp
°C
Dew
Point
Rel
Hum
%
Delta-T
°C
Wind Press
QNH
hPa
Press
MSL
hPa
Rain
since 9 am
mm
Dir
 
Spd
km/h
Gust
km/h
Spd
kts
Gust
kts
04/11:30pm 19.9 16.5 5.9 40 7.0 W 13 19 7 10 1010.6 1010.2 0.0
04/11:00pm 20.6 17.5 5.4 37 7.6 WNW 11 17 6 9 1010.4 1010.0 0.0
04/10:30pm 20.8 17.9 4.8 35 7.9 WNW 9 13 5 7 1010.7 1010.3 0.0
04/10:00pm 21.1 18.1 4.2 33 8.2 WNW 9 13 5 7 1010.6 1010.2 0.0
04/09:30pm 21.2 18.1 3.4 31 8.6 W 9 15 5 8 1010.7 1010.3 0.0
04/09:00pm 22.4 18.4 3.0 28 9.3 WNW 13 17 7 9 1010.6 1010.2 0.0
04/08:30pm 23.0 18.9 2.5 26 9.8 WNW 13 20 7 11 1010.4 1010.0 0.0
04/08:00pm 23.6 19.9 2.4 25 10.2 W 11 17 6 9 1010.2 1009.8 0.0
04/07:30pm 25.4 20.3 0.8 20 11.6 WNW 17 24 9 13 1010.1 1009.7 0.0
04/07:00pm 26.7 21.8 1.9 20 12.1 W 17 24 9 13 1010.0 1009.6 0.0
04/06:30pm 27.4 22.1 1.8 19 12.5 W 19 28 10 15 1010.2 1009.8 0.0
04/06:00pm 27.7 21.7 1.2 18 12.8 W 22 32 12 17 1010.3 1009.9 0.0
04/05:30pm 28.2 21.7 0.0 16 13.4 W 24 33 13 18 1010.3 1009.9 0.0
04/05:00pm 29.0 23.7 3.1 19 13.1 W 20 32 11 17 1010.3 1009.9 0.0
04/04:30pm 28.4 23.0 2.6 19 12.8 WNW 20 30 11 16 1010.5 1010.1 0.0
04/04:00pm 28.9 23.9 4.4 21 12.6 W 20 33 11 18 1011.0 1010.6 0.0
04/03:30pm 28.6 22.4 2.0 18 13.1 W 24 35 13 19 1011.5 1011.1 0.0
04/03:00pm 28.5 23.3 3.4 20 12.7 WSW 20 33 11 18 1011.8 1011.4 0.0
04/02:30pm 27.8 22.3 2.1 19 12.6 W 20 33 11 18 1012.2 1011.8 0.0
04/02:00pm 27.3 22.6 3.1 21 12.1 W 17 26 9 14 1012.5 1012.1 0.0
04/01:30pm 27.3 22.5 4.4 23 11.7 W 19 30 10 16 1013.0 1012.6 0.0
04/01:00pm 27.3 22.6 5.0 24 11.5 WSW 19 24 10 13 1013.4 1013.0 0.0
04/12:30pm 26.6 21.2 4.4 24 11.3 WSW 22 32 12 17 1013.9 1013.5 0.0
04/12:00pm 25.6 20.6 3.6 24 10.9 WSW 19 28 10 15 1014.1 1013.7 0.0
04/11:30am 25.2 20.7 4.3 26 10.5 SW 17 28 9 15 1014.4 1014.1 0.0
04/11:00am 24.6 20.1 5.9 30 9.6 SW 19 28 10 15 1014.7 1014.4 0.0
04/10:30am 24.3 20.7 6.6 32 9.2 SW 15 26 8 14 1014.8 1014.5 0.0
04/10:00am 21.9 19.8 8.4 42 7.1 SW 9 13 5 7 1014.8 1014.5 0.0
04/09:30am 20.5 19.2 10.0 51 5.7 SW 7 11 4 6 1015.0 1014.6 0.0
04/09:00am 19.3 18.4 10.6 57 4.7 SSW 6 9 3 5 1015.0 1014.6 0.0
04/08:30am 16.8 15.7 10.6 67 3.3 WSW 7 9 4 5 1014.8 1014.5 0.0
04/08:00am 14.4 12.6 9.6 73 2.5 WSW 9 11 5 6 1014.4 1014.1 0.0
04/07:30am 12.6 10.4 9.4 81 1.6 SW 11 13 6 7 1013.9 1013.5 0.0
04/07:00am 11.5 9.2 8.9 84 1.3 WSW 11 11 6 6 1013.6 1013.2 0.0
04/06:30am 11.6 9.2 8.8 83 1.4 WSW 11 11 6 6 1013.3 1012.9 0.0
04/06:00am 12.1 9.7 8.8 80 1.7 WSW 11 11 6 6 1013.1 1012.7 0.0
04/05:30am 12.6 10.6 8.5 76 2.1 WSW 9 9 5 5 1012.8 1012.4 0.0
04/05:00am 13.4 11.0 8.5 72 2.5 WSW 11 13 6 7 1012.5 1012.1 0.0
04/04:30am 13.5 11.4 8.1 70 2.7 WSW 9 11 5 6 1012.6 1012.2 0.0
04/04:00am 13.8 11.3 8.0 68 2.9 WSW 11 11 6 6 1012.6 1012.2 0.0
04/03:30am 13.6 11.0 7.8 68 2.9 SW 11 13 6 7 1012.5 1012.1 0.0
04/03:00am 13.6 11.3 7.6 67 3.0 WSW 9 11 5 6 1013.0 1012.6 0.0
04/02:30am 15.1 12.4 7.2 59 3.9 WSW 11 15 6 8 1013.2 1012.8 0.0
04/02:00am 14.8 12.2 7.6 62 3.6 WSW 11 13 6 7 1013.2 1012.8 0.0
04/01:30am 15.1 12.8 7.6 61 3.7 WSW 9 11 5 6 1013.3 1012.9 0.0
04/01:00am 15.7 14.0 7.7 59 4.0 WSW 6 6 3 3 1013.3 1012.9 0.0
04/12:30am 15.9 14.2 7.4 57 4.3 WSW 6 7 3 4 1013.5 1013.1 0.0
04/12:00am 16.8 15.1 7.7 55 4.6 WSW 6 7 3 4 1013.5 1013.1 0.0
 
Date/Time
EDT
Temp
°C
App
Temp
°C
Dew
Point
Rel
Hum
%
Delta-T
°C
Wind Press
QNH
hPa
Press
MSL
hPa
Rain
since 9 am
mm
Dir
 
Spd
km/h
Gust
km/h
Spd
kts
Gust
kts
03/11:30pm 17.9 16.4 7.0 49 5.5 SW 4 6 2 3 1013.8 1013.4 0.0
03/11:00pm 18.7 17.8 6.2 44 6.2 CALM 0 0 0 0 1013.8 1013.4 0.0
03/10:30pm 18.7 17.6 6.9 46 6.0 SSW 2 7 1 4 1013.5 1013.1 0.0
03/10:00pm 19.0 16.5 6.5 44 6.3 SW 9 9 5 5 1013.4 1013.0 0.0
03/09:30pm 20.7 18.4 5.9 38 7.4 WSW 7 9 4 5 1013.3 1012.9 0.0
03/09:00pm 22.1 19.7 5.1 33 8.5 WSW 7 9 4 5 1013.1 1012.7 0.0
03/08:30pm 23.1 19.8 4.6 30 9.2 WSW 11 15 6 8 1012.8 1012.4 0.0
03/08:00pm 25.4 20.9 4.0 25 10.7 WSW 17 20 9 11 1012.6 1012.2 0.0
03/07:30pm 27.2 22.4 4.9 24 11.5 WSW 19 24 10 13 1012.4 1012.0 0.0
03/07:00pm 28.7 23.8 4.9 22 12.3 WSW 20 28 11 15 1012.2 1011.8 0.0
03/06:30pm 29.6 24.5 2.8 18 13.5 WSW 19 26 10 14 1011.9 1011.5 0.0
03/06:00pm 30.1 25.4 3.2 18 13.7 SW 17 26 9 14 1011.9 1011.5 0.0
03/05:30pm 30.1 24.3 2.4 17 13.9 WSW 22 33 12 18 1011.9 1011.5 0.0
03/05:00pm 30.3 24.8 0.8 15 14.4 WSW 19 33 10 18 1012.1 1011.7 0.0
03/04:30pm 30.6 24.6 1.0 15 14.5 W 22 33 12 18 1012.0 1011.6 0.0
03/04:00pm 30.9 25.7 2.2 16 14.4 W 19 28 10 15 1012.2 1011.8 0.0
03/03:30pm 31.4 26.6 2.6 16 14.6 WSW 17 28 9 15 1012.3 1011.9 0.0
03/03:00pm 30.2 25.4 2.5 17 13.9 W 17 26 9 14 1012.5 1012.1 0.0
03/02:30pm 31.5 27.2 3.5 17 14.4 SW 15 24 8 13 1013.0 1012.6 0.0
03/02:00pm 31.3 28.4 4.9 19 13.9 WNW 9 20 5 11 1013.1 1012.7 0.0
03/01:30pm 29.7 26.2 7.0 24 12.3 NNE 15 33 8 18 1013.3 1012.9 0.0
03/01:00pm 29.3 27.5 9.4 29 11.2 N 9 15 5 8 1013.8 1013.4 0.0
03/12:30pm 28.2 27.0 10.4 33 10.1 NW 7 15 4 8 1014.4 1014.1 0.0
03/12:00pm 28.2 27.9 11.3 35 9.7 SW 4 7 2 4 1014.5 1014.2 0.0
03/11:30am 26.5 25.4 11.8 40 8.5 NNW 9 13 5 7 1014.8 1014.5 0.0
03/11:00am 27.5 27.5 12.3 39 8.9 WNW 4 9 2 5 1014.8 1014.5 0.0
03/10:30am 25.4 25.1 11.6 42 7.9 NE 4 7 2 4 1015.0 1014.6 0.0
03/10:00am 24.9 24.3 10.4 40 8.1 SSE 4 7 2 4 1015.0 1014.6 0.0
03/09:30am 22.8 21.1 9.9 44 7.1 SSW 9 13 5 7 1015.0 1014.6 0.0
03/09:00am 21.5 19.2 10.6 50 6.0 SW 13 19 7 10 1015.0 1014.6 0.0
03/08:30am 21.0 20.0 10.2 50 5.9 WSW 6 9 3 5 1014.7 1014.4 0.0
03/08:00am 20.0 19.3 9.9 52 5.4 E 4 6 2 3 1013.9 1013.5 0.0
03/07:30am 18.9 19.4 11.5 62 4.1 CALM 0 0 0 0 1013.5 1013.1 0.0
03/07:00am 18.9 18.5 11.0 60 4.3 ENE 4 4 2 2 1013.2 1012.8 0.0
03/06:30am 19.0 18.5 10.8 59 4.5 SSW 4 4 2 2 1013.1 1012.7 0.0
03/06:00am 19.2 18.3 10.5 57 4.7 W 6 7 3 4 1013.0 1012.6 0.0
03/05:30am 19.2 18.5 10.2 56 4.9 WSW 4 4 2 2 1012.8 1012.4 0.0
03/05:00am 19.2 19.5 11.0 59 4.5 CALM 0 6 0 3 1012.3 1011.9 0.0
03/04:30am 19.7 18.4 9.3 51 5.5 ENE 6 7 3 4 1012.5 1012.1 0.0
03/04:00am 19.5 18.3 9.7 53 5.2 E 6 7 3 4 1012.6 1012.2 0.0
03/03:30am 19.9 18.8 9.8 52 5.4 S 6 7 3 4 1012.3 1011.9 0.0
03/03:00am 20.3 18.4 9.2 49 5.9 SSW 9 11 5 6 1012.1 1011.7 0.0
03/02:30am 19.7 18.4 10.1 54 5.2 SW 7 7 4 4 1012.3 1011.9 0.0
03/02:00am 20.0 18.7 10.1 53 5.4 SW 7 7 4 4 1012.6 1012.2 0.0
03/01:30am 19.8 18.6 10.2 54 5.2 SW 7 9 4 5 1012.8 1012.4 0.0
03/01:00am 20.6 19.8 9.8 50 5.8 SSE 4 4 2 2 1012.7 1012.3 0.0
03/12:30am 20.4 19.0 9.0 48 6.1 SSW 6 6 3 3 1012.7 1012.3 0.0
03/12:00am 21.7 20.2 8.6 43 7.0 S 6 9 3 5 1012.7 1012.3 0.0
 
Date/Time
EDT
Temp
°C
App
Temp
°C
Dew
Point
Rel
Hum
%
Delta-T
°C
Wind Press
QNH
hPa
Press
MSL
hPa
Rain
since 9 am
mm
Dir
 
Spd
km/h
Gust
km/h
Spd
kts
Gust
kts
02/11:30pm 21.1 19.4 8.4 44 6.7 SSW 7 9 4 5 1013.3 1012.9 0.0
02/11:00pm 21.8 20.0 8.0 41 7.3 SSW 7 9 4 5 1013.6 1013.2 0.0
02/10:30pm 22.6 19.9 7.2 37 8.0 S 11 13 6 7 1013.4 1013.0 0.0
02/10:00pm 21.8 19.5 7.6 40 7.4 SSW 9 11 5 6 1013.4 1013.0 0.0
02/09:30pm 22.2 20.6 8.0 40 7.5 SSW 6 7 3 4 1013.7 1013.3 0.0
02/09:00pm 22.8 21.0 7.8 38 7.9 S 7 9 4 5 1013.3 1012.9 0.0
02/08:30pm 23.8 21.9 7.4 35 8.6 S 7 7 4 4 1012.6 1012.2 0.0
02/08:00pm 24.8 22.8 7.0 32 9.4 S 7 9 4 5 1012.6 1012.2 0.0
02/07:30pm 26.3 23.9 6.9 29 10.3 SSE 9 11 5 6 1012.2 1011.8 0.0
02/07:00pm 27.3 24.9 7.2 28 10.8 SE 9 15 5 8 1012.0 1011.6 0.0
02/06:30pm 27.4 25.1 7.3 28 10.8 SSE 9 13 5 7 1012.3 1011.9 0.0
02/06:00pm 27.4 25.6 7.3 28 10.8 SE 6 9 3 5 1011.7 1011.3 0.0
02/05:30pm 27.7 26.0 7.5 28 10.9 SSE 6 13 3 7 1012.2 1011.8 0.0
02/05:00pm 27.8 25.4 7.1 27 11.1 ENE 9 13 5 7 1012.0 1011.6 0.0
02/04:30pm 28.1 26.0 6.8 26 11.4 ENE 7 13 4 7 1012.4 1012.0 0.0
02/04:00pm 27.9 26.1 7.2 27 11.1 SSE 6 15 3 8 1013.0 1012.6 0.0
02/03:30pm 27.7 25.9 7.0 27 11.1 SE 6 13 3 7 1013.6 1013.2 0.0
02/03:00pm 27.6 25.7 7.5 28 10.8 NE 7 20 4 11 1013.8 1013.4 0.0
02/02:30pm 26.7 24.3 7.2 29 10.4 E 9 13 5 7 1014.0 1013.6 0.0
02/02:00pm 26.4 23.8 7.9 31 10.0 ENE 11 17 6 9 1014.6 1014.3 0.0
02/01:30pm 25.9 23.5 7.0 30 10.0 ENE 9 17 5 9 1015.2 1014.8 0.0
02/01:00pm 25.1 23.1 7.3 32 9.4 NNE 7 19 4 10 1015.8 1015.4 0.0
02/12:30pm 25.1 22.9 7.7 33 9.3 ENE 9 17 5 9 1016.4 1016.0 0.0
02/12:00pm 24.3 22.1 7.9 35 8.7 ENE 9 17 5 9 1016.9 1016.5 0.0
02/11:30am 23.5 20.5 7.6 36 8.4 E 13 20 7 11 1017.3 1016.9 0.0
02/11:00am 21.7 18.6 7.2 39 7.5 ENE 13 19 7 10 1017.5 1017.1 0.0
02/10:30am 20.6 17.3 6.5 40 7.2 ENE 13 20 7 11 1017.9 1017.5 0.0
02/10:00am 20.1 16.9 6.8 42 6.8 ENE 13 20 7 11 1017.6 1017.2 0.0
02/09:30am 19.2 15.7 7.0 45 6.2 E 15 22 8 12 1017.2 1016.8 0.0
02/09:00am 17.5 14.1 7.8 53 4.9 E 15 20 8 11 1017.3 1016.9 0.0
02/08:30am 15.6 13.0 7.6 59 4.0 E 11 17 6 9 1017.1 1016.7 0.0
02/08:00am 13.6 11.8 8.0 69 2.8 E 7 13 4 7 1017.2 1016.8 0.0
02/07:30am 11.8 10.0 7.9 77 1.9 ESE 7 11 4 6 1017.0 1016.6 0.0
02/07:00am 9.8 8.4 7.1 83 1.3 ESE 4 7 2 4 1016.7 1016.3 0.0
02/06:30am 9.4 7.6 7.2 86 1.0 SSE 6 7 3 4 1016.3 1015.9 0.0
02/06:00am 8.3 6.4 6.6 89 0.8 S 6 7 3 4 1016.3 1015.9 0.0
02/05:30am 8.3 6.3 6.4 88 0.9 SSW 6 7 3 4 1016.0 1015.6 0.0
02/05:00am 9.2 7.7 6.6 84 1.2 SSW 4 6 2 3 1015.8 1015.4 0.0
02/04:30am 10.0 8.5 6.7 80 1.6 SSW 4 6 2 3 1015.7 1015.3 0.0
02/04:00am 10.0 8.5 6.9 81 1.5 SSW 4 6 2 3 1015.9 1015.5 0.0
02/03:30am 10.9 9.4 7.0 77 1.9 SSW 4 4 2 2 1015.9 1015.5 0.0
02/03:00am 11.1 9.0 6.8 75 2.0 SW 7 9 4 5 1015.7 1015.3 0.0
02/02:30am 11.2 8.8 6.9 75 2.1 SSW 9 11 5 6 1015.8 1015.4 0.0
02/02:00am 11.7 9.6 6.8 72 2.3 SSW 7 9 4 5 1015.7 1015.3 0.0
02/01:30am 11.9 9.5 6.8 71 2.4 SSW 9 11 5 6 1015.6 1015.2 0.0
02/01:00am 12.7 10.6 6.7 67 2.9 SW 7 9 4 5 1015.5 1015.1 0.0
02/12:30am 14.1 11.7 6.9 62 3.5 SSW 9 13 5 7 1015.2 1014.8 0.0
02/12:00am 15.4 11.8 6.9 57 4.2 SSW 15 20 8 11 1014.8 1014.5 0.0

Other Formats:

Comma delimited format used in spreadsheet applications
http://www.bom.gov.au/fwo/IDV60801/IDV60801.94862.axf

JavaScript Object Notation format (JSON) in row-major order
http://www.bom.gov.au/fwo/IDV60801/IDV60801.94862.json